Ora Direzione Vento Velocita' Vento Media Vento Raffica Max. Temperatura Wind Chill Pioggia Pressione
21:36:27.0332 °(NNW)7.9 Kts7.7 Kts14.5 Kts22.5 °C23.38 °C0.0 mm1014.7 Hpa
21:15:25.0338 °(NNW)9.3 Kts8.8 Kts14.5 Kts22.7 °C23.53 °C0.0 mm1016.1 Hpa
20:56:19.0310 °(NW)6.9 Kts8.36 Kts14.5 Kts23.1 °C24.18 °C0.0 mm1016.9 Hpa
20:35:07.0317 °(NW)5.4 Kts8.4 Kts14.5 Kts24.2 °C25.63 °C0.0 mm1015.3 Hpa
20:16:02.0313 °(NW)8.4 Kts7.23 Kts14.5 Kts25.5 °C27.04 °C0.0 mm1016.0 Hpa
19:54:49.0324 °(NW)9.7 Kts10.06 Kts14.5 Kts26.3 °C27.98 °C0.0 mm1013.5 Hpa
19:35:48.0313 °(NW)8.9 Kts9.53 Kts14.5 Kts27.0 °C28.87 °C0.0 mm1015.6 Hpa
19:14:40.0319 °(NW)8.0 Kts7.76 Kts14.5 Kts27.3 °C29.25 °C0.0 mm1014.4 Hpa
18:55:39.0317 °(NW)8.8 Kts10.76 Kts14.5 Kts26.8 °C28.62 °C0.0 mm1014.9 Hpa
18:34:38.0332 °(NNW)9.4 Kts11.0 Kts14.5 Kts26.5 °C28.25 °C0.0 mm1014.6 Hpa
18:15:34.0308 °(NW)11.2 Kts11.53 Kts14.5 Kts26.2 °C27.82 °C0.0 mm1015.2 Hpa
17:56:25.0305 °(NW)13.0 Kts11.5 Kts14.5 Kts25.2 °C26.52 °C0.0 mm1016.1 Hpa
17:35:11.0299 °(WNW)12.2 Kts12.13 Kts14.5 Kts25.2 °C26.53 °C0.0 mm1014.9 Hpa
17:16:10.0302 °(WNW)10.9 Kts12.03 Kts13.6 Kts25.0 °C26.31 °C0.0 mm1015.9 Hpa
16:55:01.0306 °(NW)10.3 Kts11.56 Kts13.6 Kts25.2 °C26.59 °C0.0 mm1015.2 Hpa
16:36:07.0293 °(WNW)10.2 Kts11.1 Kts13.6 Kts25.3 °C26.73 °C0.0 mm1017.4 Hpa
16:14:57.0287 °(WNW)11.1 Kts9.5 Kts13.6 Kts25.6 °C27.07 °C0.0 mm1015.5 Hpa
15:55:40.0304 °(NW)11.1 Kts11.36 Kts13.6 Kts25.5 °C26.94 °C0.0 mm1015.5 Hpa
15:34:28.0306 °(NW)10.0 Kts10.13 Kts13.6 Kts25.3 °C26.73 °C0.0 mm1014.4 Hpa
15:15:31.0302 °(WNW)11.0 Kts9.7 Kts13.6 Kts25.3 °C26.69 °C0.0 mm1016.7 Hpa